createdAt,value
2017-08-02T00:01:18.281Z,9.80
2017-08-02T00:03:46.002Z,9.60
2017-08-02T00:06:13.762Z,10.50
2017-08-02T00:08:41.536Z,10.30
2017-08-02T00:11:09.302Z,10.90
2017-08-02T00:13:37.001Z,9.40
2017-08-02T00:16:04.871Z,10.20
2017-08-02T00:18:33.827Z,9.83
2017-08-02T00:21:01.573Z,11.33
2017-08-02T00:23:30.463Z,10.50
2017-08-02T00:25:58.152Z,10.80
2017-08-02T00:28:25.884Z,10.13
2017-08-02T00:30:53.565Z,9.83
2017-08-02T00:33:21.355Z,9.80
2017-08-02T00:35:49.094Z,10.83
2017-08-02T00:38:16.862Z,11.10
2017-08-02T00:40:44.618Z,9.87
2017-08-02T00:43:12.317Z,10.30
2017-08-02T00:45:40.004Z,10.50
2017-08-02T00:48:08.565Z,9.03
2017-08-02T00:50:36.311Z,10.57
2017-08-02T00:53:04.036Z,10.10
2017-08-02T00:55:31.743Z,9.37
2017-08-02T00:57:59.525Z,10.47
2017-08-02T01:00:27.313Z,9.90
2017-08-02T01:02:55.098Z,10.30
2017-08-02T01:05:22.811Z,9.03
2017-08-02T01:07:50.678Z,9.57
2017-08-02T01:10:18.383Z,9.17
2017-08-02T01:12:46.069Z,11.00
2017-08-02T01:15:13.811Z,10.43
2017-08-02T01:17:41.573Z,9.40
2017-08-02T01:20:09.368Z,10.77
2017-08-02T01:22:37.089Z,11.07
2017-08-02T01:25:04.786Z,10.90
2017-08-02T01:27:32.582Z,11.23
2017-08-02T01:30:00.372Z,9.70
2017-08-02T01:32:28.361Z,10.97
2017-08-02T01:34:56.141Z,10.67
2017-08-02T01:37:23.835Z,11.00
2017-08-02T01:39:51.639Z,10.37
2017-08-02T01:42:19.341Z,11.00
2017-08-02T01:44:48.127Z,10.47
2017-08-02T01:47:16.761Z,10.50
2017-08-02T01:49:45.528Z,9.67
2017-08-02T01:52:13.246Z,11.17
2017-08-02T01:54:41.099Z,10.17
2017-08-02T01:57:08.865Z,9.70
2017-08-02T01:59:36.598Z,10.77
2017-08-02T02:02:04.338Z,9.63
2017-08-02T02:04:32.215Z,9.17
2017-08-02T02:07:00.254Z,10.23
2017-08-02T02:09:27.947Z,10.20
2017-08-02T02:11:55.686Z,9.83
2017-08-02T02:14:23.443Z,10.60
2017-08-02T02:16:51.201Z,10.93
2017-08-02T02:19:18.934Z,9.53
2017-08-02T02:21:46.649Z,10.50
2017-08-02T02:24:14.391Z,9.90
2017-08-02T02:26:42.119Z,9.43
2017-08-02T02:29:09.927Z,9.80
2017-08-02T02:31:38.558Z,9.87
2017-08-02T02:34:06.343Z,10.83
2017-08-02T02:36:34.045Z,9.33
2017-08-02T02:39:01.734Z,9.77
2017-08-02T02:41:29.501Z,9.47
2017-08-02T02:43:57.256Z,9.60
2017-08-02T02:46:25.049Z,10.40
2017-08-02T02:48:54.270Z,9.73
2017-08-02T02:51:21.972Z,10.17
2017-08-02T02:53:49.762Z,10.00
2017-08-02T02:56:17.477Z,10.53
2017-08-02T02:58:45.172Z,9.00
2017-08-02T03:01:12.914Z,10.27
2017-08-02T03:03:40.601Z,8.67
2017-08-02T03:06:08.382Z,10.10
2017-08-02T03:08:36.121Z,9.20
2017-08-02T03:11:03.889Z,10.20
2017-08-02T03:13:31.602Z,9.10
2017-08-02T03:15:59.358Z,8.53
2017-08-02T03:18:27.167Z,9.53
2017-08-02T03:20:55.270Z,8.93
2017-08-02T03:23:23.027Z,9.90
2017-08-02T03:25:50.741Z,10.00
2017-08-02T03:28:18.448Z,10.13
2017-08-02T03:30:46.186Z,9.57
2017-08-02T03:33:13.884Z,10.37
2017-08-02T03:35:41.775Z,10.40
2017-08-02T03:38:09.464Z,9.80
2017-08-02T03:40:37.190Z,8.77
2017-08-02T03:43:04.936Z,10.00
2017-08-02T03:45:32.710Z,11.00
2017-08-02T03:48:00.420Z,11.07
2017-08-02T03:50:28.202Z,10.60
2017-08-02T03:52:56.061Z,9.50
2017-08-02T03:55:23.929Z,10.30
2017-08-02T03:57:51.641Z,9.47
2017-08-02T04:00:19.395Z,10.87
2017-08-02T04:02:47.141Z,9.50
2017-08-02T04:05:14.863Z,9.67
2017-08-02T04:07:42.765Z,10.30
2017-08-02T04:10:10.519Z,9.80
2017-08-02T04:12:38.358Z,9.50
2017-08-02T04:15:06.928Z,10.80
2017-08-02T04:17:34.616Z,9.83
2017-08-02T04:20:02.395Z,8.00
2017-08-02T04:22:30.106Z,9.17
2017-08-02T04:24:57.860Z,9.23
2017-08-02T04:27:25.603Z,9.03
2017-08-02T04:29:53.471Z,8.80
2017-08-02T04:32:21.227Z,10.13
2017-08-02T04:34:49.049Z,8.80
2017-08-02T04:37:16.830Z,8.20
2017-08-02T04:39:44.523Z,8.43
2017-08-02T04:42:12.602Z,10.60
2017-08-02T04:44:40.365Z,9.10
2017-08-02T04:47:08.054Z,11.20
2017-08-02T04:49:35.773Z,8.00
2017-08-02T04:52:03.555Z,8.07
2017-08-02T04:54:31.248Z,9.37
2017-08-02T04:56:58.988Z,10.00
2017-08-02T04:59:26.726Z,9.00
2017-08-02T05:01:54.417Z,9.40
2017-08-02T05:04:22.164Z,9.57
2017-08-02T05:06:49.929Z,9.43
2017-08-02T05:09:17.636Z,10.10
2017-08-02T05:11:45.354Z,8.83
2017-08-02T05:14:13.126Z,9.00
2017-08-02T05:16:40.827Z,10.63
2017-08-02T05:19:08.549Z,9.00
2017-08-02T05:21:36.395Z,9.00
2017-08-02T05:24:04.108Z,9.87
2017-08-02T05:26:31.828Z,10.13
2017-08-02T05:28:59.599Z,8.53
2017-08-02T05:31:27.300Z,8.80
2017-08-02T05:33:55.072Z,8.93
2017-08-02T05:36:22.747Z,9.87
2017-08-02T05:38:50.542Z,9.00
2017-08-02T05:41:18.270Z,9.27
2017-08-02T05:43:46.039Z,8.63
2017-08-02T05:46:13.879Z,9.20
2017-08-02T05:48:41.599Z,10.47
2017-08-02T05:51:09.364Z,8.93
2017-08-02T05:53:37.150Z,8.70
2017-08-02T05:56:04.864Z,9.83
2017-08-02T05:58:33.639Z,9.80
2017-08-02T06:01:01.470Z,9.87
2017-08-02T06:03:29.937Z,8.00
2017-08-02T06:05:57.778Z,10.70
2017-08-02T06:08:25.539Z,9.10
2017-08-02T06:10:53.322Z,9.70
2017-08-02T06:13:22.095Z,9.43
2017-08-02T06:15:49.876Z,10.80
2017-08-02T06:18:17.768Z,8.90
2017-08-02T06:20:45.738Z,8.50
2017-08-02T06:23:13.493Z,8.50
2017-08-02T06:25:41.230Z,8.73
2017-08-02T06:28:09.060Z,9.23
2017-08-02T06:30:37.774Z,8.40
2017-08-02T06:33:05.589Z,8.80
2017-08-02T06:35:33.299Z,8.53
2017-08-02T06:38:01.070Z,7.93
2017-08-02T06:40:28.885Z,9.30
2017-08-02T06:42:56.670Z,9.37
2017-08-02T06:45:24.514Z,7.23
2017-08-02T06:47:52.287Z,8.93
2017-08-02T06:50:20.170Z,7.57
2017-08-02T06:52:47.946Z,7.00
2017-08-02T06:55:16.285Z,8.00
2017-08-02T06:57:44.044Z,7.07
2017-08-02T07:00:11.767Z,6.70
2017-08-02T07:02:39.528Z,7.40
2017-08-02T07:05:07.498Z,5.43
2017-08-02T07:07:35.209Z,5.90
2017-08-02T07:10:02.985Z,5.03
2017-08-02T07:12:30.695Z,4.47
2017-08-02T07:14:58.497Z,5.77
2017-08-02T07:17:27.479Z,4.43
2017-08-02T07:19:55.225Z,4.03
2017-08-02T07:22:23.006Z,4.43
2017-08-02T07:24:50.776Z,3.87
2017-08-02T07:27:19.336Z,3.27
2017-08-02T07:29:47.092Z,3.70
2017-08-02T07:32:14.844Z,3.57
2017-08-02T07:34:42.649Z,3.53
2017-08-02T07:37:10.436Z,3.53
2017-08-02T07:39:38.137Z,3.83
2017-08-02T07:42:05.892Z,3.23
2017-08-02T07:44:33.611Z,3.97
2017-08-02T07:47:01.374Z,3.40
2017-08-02T07:49:29.102Z,3.60
2017-08-02T07:51:56.877Z,3.00
2017-08-02T07:54:24.611Z,3.97
2017-08-02T07:56:52.285Z,2.60
2017-08-02T07:59:20.063Z,3.10
2017-08-02T08:01:47.840Z,3.70
2017-08-02T08:04:15.643Z,2.93
2017-08-02T08:06:43.398Z,2.40
2017-08-02T08:09:11.196Z,3.00
2017-08-02T08:11:38.868Z,3.50
2017-08-02T08:14:06.573Z,4.17
2017-08-02T08:16:34.349Z,3.50
2017-08-02T08:19:02.125Z,3.40
2017-08-02T08:21:29.870Z,4.10
2017-08-02T08:23:57.665Z,3.80
2017-08-02T08:26:26.643Z,3.50
2017-08-02T08:28:54.589Z,3.33
2017-08-02T08:31:22.323Z,3.37
2017-08-02T08:33:50.065Z,3.27
2017-08-02T08:36:17.846Z,4.40
2017-08-02T08:38:45.571Z,3.60
2017-08-02T08:41:13.351Z,3.40
2017-08-02T08:43:41.060Z,4.67
2017-08-02T08:46:08.807Z,3.43
2017-08-02T08:48:36.667Z,4.00
2017-08-02T08:51:05.220Z,3.43
2017-08-02T08:53:33.066Z,3.60
2017-08-02T08:56:00.932Z,4.10
2017-08-02T08:58:28.702Z,3.43
2017-08-02T09:00:56.450Z,3.60
2017-08-02T09:03:24.273Z,4.17
2017-08-02T09:05:52.079Z,3.90
2017-08-02T09:08:19.773Z,3.70
2017-08-02T09:10:47.524Z,4.07
2017-08-02T09:13:15.271Z,4.07
2017-08-02T09:15:43.075Z,4.83
2017-08-02T09:18:11.828Z,4.20
2017-08-02T09:20:39.604Z,4.70
2017-08-02T09:23:07.330Z,3.70
2017-08-02T09:25:35.136Z,4.40
2017-08-02T09:28:02.932Z,4.03
2017-08-02T09:30:30.663Z,4.40
2017-08-02T09:32:58.499Z,3.63
2017-08-02T09:35:26.318Z,3.83
2017-08-02T09:37:54.055Z,4.73
2017-08-02T09:40:21.904Z,3.83
2017-08-02T09:42:49.719Z,5.90
2017-08-02T09:45:17.484Z,5.17
2017-08-02T09:47:45.264Z,4.53
2017-08-02T09:50:13.076Z,4.10
2017-08-02T09:52:40.837Z,3.93
2017-08-02T09:55:09.832Z,4.07
2017-08-02T09:57:38.024Z,4.40
2017-08-02T10:00:05.876Z,4.50
2017-08-02T10:02:33.825Z,4.93
2017-08-02T10:05:02.159Z,4.60
2017-08-02T10:07:29.953Z,4.30
2017-08-02T10:09:57.803Z,4.90
2017-08-02T10:12:25.607Z,4.93
2017-08-02T10:14:53.373Z,4.77
2017-08-02T10:17:22.065Z,4.80
2017-08-02T10:19:50.878Z,4.17
2017-08-02T10:22:18.724Z,4.73
2017-08-02T10:24:46.514Z,5.00
2017-08-02T10:27:14.344Z,4.73
2017-08-02T10:29:42.249Z,3.97
2017-08-02T10:32:09.960Z,5.30
2017-08-02T10:34:37.703Z,4.33
2017-08-02T10:37:05.500Z,4.40
2017-08-02T10:39:33.273Z,4.47
2017-08-02T10:42:01.627Z,4.67
2017-08-02T10:44:29.389Z,4.80
2017-08-02T10:46:57.088Z,5.27
2017-08-02T10:49:24.837Z,4.20
2017-08-02T10:51:52.860Z,4.17
2017-08-02T10:54:20.630Z,5.00
2017-08-02T10:56:48.432Z,4.00
2017-08-02T10:59:16.206Z,4.30
2017-08-02T11:01:43.972Z,5.53
2017-08-02T11:04:11.656Z,4.10
2017-08-02T11:06:39.538Z,4.57
2017-08-02T11:09:07.247Z,4.93
2017-08-02T11:11:34.980Z,4.80
2017-08-02T11:14:03.778Z,4.77
2017-08-02T11:16:31.518Z,5.13
2017-08-02T11:18:59.358Z,4.23
2017-08-02T11:21:27.154Z,4.90
2017-08-02T11:23:54.930Z,4.57
2017-08-02T11:26:22.736Z,4.40
2017-08-02T11:28:50.502Z,5.13
2017-08-02T11:31:18.274Z,4.60
2017-08-02T11:33:47.040Z,4.50
2017-08-02T11:36:14.791Z,4.00
2017-08-02T11:38:42.550Z,4.80
2017-08-02T11:41:10.301Z,4.07
2017-08-02T11:43:38.299Z,4.77
2017-08-02T11:46:06.003Z,5.17
2017-08-02T11:48:33.706Z,5.27
2017-08-02T11:51:01.435Z,4.03
2017-08-02T11:53:29.144Z,5.10
2017-08-02T11:55:57.023Z,4.67
2017-08-02T11:58:24.727Z,5.07
2017-08-02T12:00:52.497Z,4.90
2017-08-02T12:03:20.473Z,3.80
2017-08-02T12:05:48.211Z,5.10
2017-08-02T12:08:15.975Z,5.70
2017-08-02T12:10:43.762Z,5.33
2017-08-02T12:13:11.482Z,4.57
2017-08-02T12:15:39.265Z,4.47
2017-08-02T12:18:07.036Z,4.43
2017-08-02T12:20:34.733Z,5.30
2017-08-02T12:23:02.484Z,4.07
2017-08-02T12:25:30.294Z,4.70
2017-08-02T12:27:58.043Z,4.57
2017-08-02T12:30:25.773Z,4.40
2017-08-02T12:32:53.536Z,4.30
2017-08-02T12:35:21.275Z,3.87
2017-08-02T12:37:49.165Z,3.30
2017-08-02T12:40:16.876Z,4.50
2017-08-02T12:42:44.568Z,3.70
2017-08-02T12:45:12.357Z,4.80
2017-08-02T12:47:40.081Z,4.40
2017-08-02T12:50:07.863Z,3.93
2017-08-02T12:52:35.634Z,3.20
2017-08-02T12:55:03.474Z,2.83
2017-08-02T12:57:31.218Z,3.57
2017-08-02T12:59:58.951Z,3.13
2017-08-02T13:02:26.759Z,2.87
2017-08-02T13:04:54.504Z,2.70
2017-08-02T13:07:22.213Z,3.10
2017-08-02T13:09:49.992Z,3.03
2017-08-02T13:12:18.533Z,3.07
2017-08-02T13:14:46.265Z,3.57
2017-08-02T13:17:13.966Z,3.90
2017-08-02T13:19:41.668Z,2.83
2017-08-02T13:22:09.454Z,3.13
2017-08-02T13:24:37.166Z,3.30
2017-08-02T13:27:05.499Z,4.40
2017-08-02T13:29:33.309Z,5.17
2017-08-02T13:32:01.110Z,4.93
2017-08-02T13:34:29.055Z,6.63
2017-08-02T13:36:56.937Z,5.37
2017-08-02T13:39:24.705Z,5.43
2017-08-02T13:41:52.517Z,5.90
2017-08-02T13:44:20.312Z,5.00
2017-08-02T13:46:48.157Z,5.70
2017-08-02T13:49:15.898Z,5.23
2017-08-02T13:51:44.521Z,6.00
2017-08-02T13:54:12.268Z,6.10
2017-08-02T13:56:40.036Z,5.97
2017-08-02T13:59:08.009Z,5.60
2017-08-02T14:01:35.790Z,4.90
2017-08-02T14:04:04.688Z,6.27
2017-08-02T14:06:32.665Z,6.60
2017-08-02T14:09:00.440Z,6.33
2017-08-02T14:11:28.297Z,5.70
2017-08-02T14:13:56.156Z,5.07
2017-08-02T14:16:23.901Z,5.40
2017-08-02T14:18:52.898Z,5.60
2017-08-02T14:21:21.457Z,5.97
2017-08-02T14:23:49.273Z,6.10
2017-08-02T14:26:17.055Z,6.43
2017-08-02T14:28:45.026Z,6.20
2017-08-02T14:31:12.879Z,5.90
2017-08-02T14:33:41.233Z,5.60
2017-08-02T14:36:09.092Z,5.60
2017-08-02T14:38:37.096Z,5.00
2017-08-02T14:41:04.839Z,6.10
2017-08-02T14:43:32.790Z,5.57
2017-08-02T14:46:00.595Z,6.43
2017-08-02T14:48:28.349Z,5.70
2017-08-02T14:50:56.071Z,6.40
2017-08-02T14:53:25.001Z,5.03
2017-08-02T14:55:52.829Z,5.20
2017-08-02T14:58:20.854Z,4.73
2017-08-02T15:00:48.671Z,6.63
2017-08-02T15:03:16.444Z,4.93
2017-08-02T15:05:44.207Z,4.30
2017-08-02T15:08:11.991Z,5.30
2017-08-02T15:10:39.918Z,6.27
2017-08-02T15:13:07.688Z,5.20
2017-08-02T15:15:35.448Z,4.27
2017-08-02T15:18:03.327Z,4.40
2017-08-02T15:20:31.121Z,4.40
2017-08-02T15:22:58.952Z,4.77
2017-08-02T15:25:26.724Z,3.77
2017-08-02T15:27:55.049Z,4.77
2017-08-02T15:30:22.899Z,4.37
2017-08-02T15:32:50.901Z,4.43
2017-08-02T15:35:18.820Z,4.27
2017-08-02T15:37:47.905Z,4.30
2017-08-02T15:40:16.526Z,5.00
2017-08-02T15:42:44.268Z,4.87
2017-08-02T15:45:12.103Z,5.13
2017-08-02T15:47:39.822Z,6.05
2017-08-02T15:50:07.626Z,18.92
2017-08-02T15:52:35.456Z,5.60
2017-08-02T15:55:03.247Z,5.10
2017-08-02T15:57:31.013Z,4.43
2017-08-02T15:59:59.432Z,5.10
2017-08-02T16:02:27.136Z,5.23
2017-08-02T16:04:54.950Z,4.30
2017-08-02T16:07:22.720Z,4.60
2017-08-02T16:09:51.811Z,4.63
2017-08-02T16:12:19.514Z,5.47
2017-08-02T16:14:48.157Z,4.13
2017-08-02T16:17:15.955Z,5.97
2017-08-02T16:19:43.746Z,4.90
2017-08-02T16:22:11.581Z,4.40
2017-08-02T16:24:39.391Z,5.53
2017-08-02T16:27:07.148Z,5.30
2017-08-02T16:29:34.986Z,5.00
2017-08-02T16:32:02.806Z,5.40
2017-08-02T16:34:30.546Z,4.57
2017-08-02T16:36:58.323Z,5.23
2017-08-02T16:39:26.024Z,4.90
2017-08-02T16:41:53.762Z,4.83
2017-08-02T16:44:21.568Z,4.63
2017-08-02T16:46:49.348Z,5.00
2017-08-02T16:49:17.154Z,4.60
2017-08-02T16:51:44.940Z,4.33
2017-08-02T16:54:12.703Z,6.60
2017-08-02T16:56:40.474Z,5.30
2017-08-02T16:59:08.190Z,4.03
2017-08-02T17:01:36.009Z,6.07
2017-08-02T17:04:03.737Z,6.63
2017-08-02T17:06:31.573Z,4.97
2017-08-02T17:08:59.363Z,5.37
2017-08-02T17:11:27.063Z,5.43
2017-08-02T17:13:54.919Z,5.40
2017-08-02T17:16:22.662Z,5.17
2017-08-02T17:18:50.408Z,5.00
2017-08-02T17:21:18.235Z,4.90
2017-08-02T17:23:45.944Z,4.90
2017-08-02T17:26:13.792Z,5.33
2017-08-02T17:28:41.683Z,6.10
2017-08-02T17:31:09.616Z,5.40
2017-08-02T17:33:37.419Z,5.87
2017-08-02T17:36:05.350Z,5.63
2017-08-02T17:38:33.285Z,5.93
2017-08-02T17:41:01.055Z,5.23
2017-08-02T17:43:30.505Z,6.27
2017-08-02T17:45:58.294Z,5.13
2017-08-02T17:48:26.150Z,5.33
2017-08-02T17:50:53.915Z,5.80
2017-08-02T17:53:21.690Z,5.63
2017-08-02T17:55:49.513Z,5.23
2017-08-02T17:58:18.477Z,5.40
2017-08-02T18:00:46.693Z,5.63
2017-08-02T18:03:14.552Z,5.67
2017-08-02T18:05:42.448Z,4.97
2017-08-02T18:08:10.879Z,6.17
2017-08-02T18:10:38.856Z,5.40
2017-08-02T18:13:06.678Z,6.20
2017-08-02T18:15:39.288Z,5.20
2017-08-02T18:18:07.270Z,5.07
2017-08-02T18:20:37.142Z,4.77
2017-08-02T18:23:05.030Z,4.23
2017-08-02T18:25:33.106Z,5.50
2017-08-02T18:28:00.914Z,4.90
2017-08-02T18:30:28.730Z,5.43
2017-08-02T18:32:56.465Z,4.27
2017-08-02T18:35:25.168Z,4.80
2017-08-02T18:37:53.162Z,4.47
2017-08-02T18:40:20.955Z,4.90
2017-08-02T18:42:48.768Z,5.57
2017-08-02T18:45:16.503Z,4.80
2017-08-02T18:47:45.049Z,4.37
2017-08-02T18:50:12.938Z,4.97
2017-08-02T18:52:40.751Z,4.57
2017-08-02T18:55:08.512Z,5.00
2017-08-02T18:57:36.567Z,5.27
2017-08-02T19:00:04.720Z,4.80
2017-08-02T19:02:32.677Z,5.50
2017-08-02T19:05:00.503Z,5.50
2017-08-02T19:07:29.245Z,5.20
2017-08-02T19:09:57.138Z,6.07
2017-08-02T19:12:25.939Z,4.87
2017-08-02T19:14:53.800Z,4.60
2017-08-02T19:17:21.525Z,5.23
2017-08-02T19:19:49.306Z,5.30
2017-08-02T19:22:17.061Z,4.07
2017-08-02T19:24:44.884Z,5.17
2017-08-02T19:27:12.756Z,4.57
2017-08-02T19:29:40.615Z,5.50
2017-08-02T19:32:08.656Z,4.30
2017-08-02T19:34:36.439Z,5.90
2017-08-02T19:37:04.223Z,4.97
2017-08-02T19:39:32.026Z,5.27
2017-08-02T19:41:59.782Z,5.30
2017-08-02T19:44:27.587Z,5.60
2017-08-02T19:46:56.112Z,5.00
2017-08-02T19:49:24.611Z,4.60
2017-08-02T19:51:52.416Z,4.90
2017-08-02T19:54:20.441Z,4.80
2017-08-02T19:56:48.354Z,4.47
2017-08-02T19:59:16.157Z,4.53
2017-08-02T20:01:43.934Z,5.23
2017-08-02T20:04:11.795Z,4.40
2017-08-02T20:06:39.542Z,4.60
2017-08-02T20:09:07.368Z,5.20
2017-08-02T20:11:35.084Z,5.50
2017-08-02T20:14:02.776Z,4.63
2017-08-02T20:16:30.649Z,5.80
2017-08-02T20:18:58.899Z,4.83
2017-08-02T20:21:27.770Z,5.80
2017-08-02T20:23:56.124Z,5.20
2017-08-02T20:26:24.916Z,4.60
2017-08-02T20:28:52.694Z,4.80
2017-08-02T20:31:20.402Z,4.40
2017-08-02T20:33:48.159Z,5.43
2017-08-02T20:36:15.868Z,4.70
2017-08-02T20:38:43.634Z,5.87
2017-08-02T20:41:11.376Z,5.80
2017-08-02T20:43:39.203Z,5.77
2017-08-02T20:46:07.275Z,5.00
2017-08-02T20:48:35.062Z,5.47
2017-08-02T20:51:02.903Z,5.03
2017-08-02T20:53:30.760Z,5.60
2017-08-02T20:55:58.591Z,4.73
2017-08-02T20:58:26.327Z,4.23
2017-08-02T21:00:54.183Z,5.17
2017-08-02T21:03:22.066Z,5.57
2017-08-02T21:05:49.864Z,5.70
2017-08-02T21:08:17.627Z,6.07
2017-08-02T21:10:45.402Z,5.40
2017-08-02T21:13:13.196Z,4.70
2017-08-02T21:15:40.886Z,5.93
2017-08-02T21:18:09.477Z,5.33
2017-08-02T21:20:37.374Z,6.00
2017-08-02T21:23:05.845Z,5.50
2017-08-02T21:25:33.661Z,4.60
2017-08-02T21:28:01.397Z,5.80
2017-08-02T21:30:29.335Z,5.60
2017-08-02T21:32:57.106Z,5.03
2017-08-02T21:35:24.827Z,5.63
2017-08-02T21:37:52.620Z,5.00
2017-08-02T21:40:20.475Z,3.70
2017-08-02T21:42:48.216Z,5.00
2017-08-02T21:45:16.042Z,4.70
2017-08-02T21:47:43.777Z,5.30
2017-08-02T21:50:11.551Z,4.87
2017-08-02T21:52:39.541Z,4.97
2017-08-02T21:55:08.201Z,4.60
2017-08-02T21:57:35.964Z,5.97
2017-08-02T22:00:04.744Z,5.30
2017-08-02T22:02:33.896Z,4.57
2017-08-02T22:05:01.720Z,5.53
2017-08-02T22:07:29.407Z,6.00
2017-08-02T22:09:57.127Z,5.00
2017-08-02T22:12:25.022Z,6.00
2017-08-02T22:14:52.819Z,4.60
2017-08-02T22:17:20.584Z,4.80
2017-08-02T22:19:48.366Z,5.87
2017-08-02T22:22:16.064Z,5.17
2017-08-02T22:24:44.731Z,5.80
2017-08-02T22:27:12.449Z,5.00
2017-08-02T22:29:40.160Z,6.37
2017-08-02T22:32:07.914Z,5.43
2017-08-02T22:34:35.666Z,4.27
2017-08-02T22:37:03.440Z,4.00
2017-08-02T22:39:31.147Z,5.53
2017-08-02T22:41:58.944Z,5.60
2017-08-02T22:44:26.711Z,5.00
2017-08-02T22:46:54.488Z,4.17
2017-08-02T22:49:22.249Z,5.63
2017-08-02T22:51:49.981Z,6.00
2017-08-02T22:54:17.828Z,5.90
2017-08-02T22:56:45.598Z,5.27
2017-08-02T22:59:14.520Z,4.70
2017-08-02T23:01:42.319Z,5.40
2017-08-02T23:04:10.121Z,5.40
2017-08-02T23:06:37.890Z,4.63
2017-08-02T23:09:05.695Z,4.93
2017-08-02T23:11:33.382Z,5.50
2017-08-02T23:14:01.056Z,5.23
2017-08-02T23:16:28.878Z,6.10
2017-08-02T23:18:56.621Z,5.10
2017-08-02T23:21:24.303Z,6.13
2017-08-02T23:23:52.127Z,5.60
2017-08-02T23:26:19.907Z,5.40
2017-08-02T23:28:47.607Z,6.33
2017-08-02T23:31:16.594Z,7.03
2017-08-02T23:33:44.413Z,5.83
2017-08-02T23:36:12.241Z,6.73
2017-08-02T23:38:39.952Z,4.60
2017-08-02T23:41:07.755Z,7.60
2017-08-02T23:43:35.529Z,5.73
2017-08-02T23:46:03.326Z,5.90
2017-08-02T23:48:31.038Z,5.80
2017-08-02T23:50:58.899Z,5.80
2017-08-02T23:53:26.651Z,5.47
2017-08-02T23:55:54.458Z,4.37
2017-08-02T23:58:22.273Z,5.00
